sensor_id;sensor_type;location;lat;lon;timestamp;P1;durP1;ratioP1;P2;durP2;ratioP2
19189;SDS011;9727;50.200;19.038;2022-12-18T00:01:58;49.33;;;17.97;;
19189;SDS011;9727;50.200;19.038;2022-12-18T00:04:25;54.93;;;18.50;;
19189;SDS011;9727;50.200;19.038;2022-12-18T00:06:52;56.03;;;19.07;;
19189;SDS011;9727;50.200;19.038;2022-12-18T00:09:19;51.30;;;18.63;;
19189;SDS011;9727;50.200;19.038;2022-12-18T00:11:45;51.73;;;18.83;;
19189;SDS011;9727;50.200;19.038;2022-12-18T00:14:18;58.93;;;20.43;;
19189;SDS011;9727;50.200;19.038;2022-12-18T00:16:44;52.57;;;20.07;;
19189;SDS011;9727;50.200;19.038;2022-12-18T00:19:13;59.33;;;20.20;;
19189;SDS011;9727;50.200;19.038;2022-12-18T00:21:40;46.80;;;18.53;;
19189;SDS011;9727;50.200;19.038;2022-12-18T00:24:09;54.67;;;19.83;;
19189;SDS011;9727;50.200;19.038;2022-12-18T00:26:38;53.43;;;20.00;;
19189;SDS011;9727;50.200;19.038;2022-12-18T00:29:06;54.57;;;19.43;;
19189;SDS011;9727;50.200;19.038;2022-12-18T00:31:39;55.03;;;19.43;;
19189;SDS011;9727;50.200;19.038;2022-12-18T00:34:06;56.07;;;20.47;;
19189;SDS011;9727;50.200;19.038;2022-12-18T00:36:37;58.53;;;20.40;;
19189;SDS011;9727;50.200;19.038;2022-12-18T00:39:04;64.13;;;21.43;;
19189;SDS011;9727;50.200;19.038;2022-12-18T00:41:31;67.00;;;21.20;;
19189;SDS011;9727;50.200;19.038;2022-12-18T00:44:15;52.77;;;21.10;;
19189;SDS011;9727;50.200;19.038;2022-12-18T00:46:43;56.87;;;20.03;;
19189;SDS011;9727;50.200;19.038;2022-12-18T00:49:10;53.67;;;20.50;;
19189;SDS011;9727;50.200;19.038;2022-12-18T00:51:38;57.13;;;19.53;;
19189;SDS011;9727;50.200;19.038;2022-12-18T00:54:05;46.13;;;17.77;;
19189;SDS011;9727;50.200;19.038;2022-12-18T00:56:31;54.37;;;18.10;;
19189;SDS011;9727;50.200;19.038;2022-12-18T00:58:59;51.30;;;18.50;;
19189;SDS011;9727;50.200;19.038;2022-12-18T01:01:27;46.97;;;18.23;;
19189;SDS011;9727;50.200;19.038;2022-12-18T01:03:57;43.73;;;16.53;;
19189;SDS011;9727;50.200;19.038;2022-12-18T01:06:23;43.40;;;17.03;;
19189;SDS011;9727;50.200;19.038;2022-12-18T01:08:51;50.50;;;18.30;;
19189;SDS011;9727;50.200;19.038;2022-12-18T01:11:19;55.87;;;18.70;;
19189;SDS011;9727;50.200;19.038;2022-12-18T01:13:46;44.47;;;17.43;;
19189;SDS011;9727;50.200;19.038;2022-12-18T01:16:15;56.43;;;19.67;;
19189;SDS011;9727;50.200;19.038;2022-12-18T01:18:51;62.77;;;19.63;;
19189;SDS011;9727;50.200;19.038;2022-12-18T01:21:18;60.43;;;19.57;;
19189;SDS011;9727;50.200;19.038;2022-12-18T01:23:44;59.37;;;19.87;;
19189;SDS011;9727;50.200;19.038;2022-12-18T01:26:13;60.37;;;20.43;;
19189;SDS011;9727;50.200;19.038;2022-12-18T01:28:41;65.13;;;19.70;;
19189;SDS011;9727;50.200;19.038;2022-12-18T01:31:12;57.13;;;19.43;;
19189;SDS011;9727;50.200;19.038;2022-12-18T01:33:39;51.57;;;18.73;;
19189;SDS011;9727;50.200;19.038;2022-12-18T01:36:05;54.03;;;20.43;;
19189;SDS011;9727;50.200;19.038;2022-12-18T01:38:35;55.17;;;19.37;;
19189;SDS011;9727;50.200;19.038;2022-12-18T01:41:01;46.37;;;18.53;;
19189;SDS011;9727;50.200;19.038;2022-12-18T01:43:42;55.17;;;19.10;;
19189;SDS011;9727;50.200;19.038;2022-12-18T01:46:09;54.57;;;18.13;;
19189;SDS011;9727;50.200;19.038;2022-12-18T01:48:35;54.17;;;18.97;;
19189;SDS011;9727;50.200;19.038;2022-12-18T01:51:02;48.67;;;17.77;;
19189;SDS011;9727;50.200;19.038;2022-12-18T01:53:29;55.27;;;19.17;;
19189;SDS011;9727;50.200;19.038;2022-12-18T01:55:56;51.23;;;18.80;;
19189;SDS011;9727;50.200;19.038;2022-12-18T01:58:27;50.47;;;18.37;;
19189;SDS011;9727;50.200;19.038;2022-12-18T02:00:58;51.27;;;18.87;;
19189;SDS011;9727;50.200;19.038;2022-12-18T02:03:24;52.77;;;18.93;;
19189;SDS011;9727;50.200;19.038;2022-12-18T02:05:53;55.40;;;19.83;;
19189;SDS011;9727;50.200;19.038;2022-12-18T02:08:25;51.87;;;18.10;;
19189;SDS011;9727;50.200;19.038;2022-12-18T02:10:55;53.10;;;18.57;;
19189;SDS011;9727;50.200;19.038;2022-12-18T02:13:24;52.37;;;19.10;;
19189;SDS011;9727;50.200;19.038;2022-12-18T02:15:55;58.07;;;19.97;;
19189;SDS011;9727;50.200;19.038;2022-12-18T02:18:27;56.30;;;19.57;;
19189;SDS011;9727;50.200;19.038;2022-12-18T02:20:56;56.63;;;19.90;;
19189;SDS011;9727;50.200;19.038;2022-12-18T02:23:31;65.50;;;20.90;;
19189;SDS011;9727;50.200;19.038;2022-12-18T02:26:11;57.13;;;20.20;;
19189;SDS011;9727;50.200;19.038;2022-12-18T02:28:41;53.37;;;18.20;;
19189;SDS011;9727;50.200;19.038;2022-12-18T02:31:10;51.10;;;19.13;;
19189;SDS011;9727;50.200;19.038;2022-12-18T02:33:37;51.80;;;19.50;;
19189;SDS011;9727;50.200;19.038;2022-12-18T02:36:05;54.00;;;18.67;;
19189;SDS011;9727;50.200;19.038;2022-12-18T02:38:34;56.33;;;19.33;;
19189;SDS011;9727;50.200;19.038;2022-12-18T02:41:01;59.13;;;19.70;;
19189;SDS011;9727;50.200;19.038;2022-12-18T02:43:37;48.97;;;18.03;;
19189;SDS011;9727;50.200;19.038;2022-12-18T02:48:45;55.60;;;20.23;;
19189;SDS011;9727;50.200;19.038;2022-12-18T02:51:17;55.90;;;19.47;;
19189;SDS011;9727;50.200;19.038;2022-12-18T02:53:45;59.03;;;21.17;;
19189;SDS011;9727;50.200;19.038;2022-12-18T02:56:12;60.03;;;19.80;;
19189;SDS011;9727;50.200;19.038;2022-12-18T02:58:44;58.27;;;21.57;;
19189;SDS011;9727;50.200;19.038;2022-12-18T03:01:19;61.90;;;20.87;;
19189;SDS011;9727;50.200;19.038;2022-12-18T03:03:51;54.83;;;18.93;;
19189;SDS011;9727;50.200;19.038;2022-12-18T03:06:20;52.00;;;19.33;;
19189;SDS011;9727;50.200;19.038;2022-12-18T03:08:51;49.87;;;18.47;;
19189;SDS011;9727;50.200;19.038;2022-12-18T03:11:19;54.57;;;19.87;;
19189;SDS011;9727;50.200;19.038;2022-12-18T03:14:08;55.33;;;20.20;;
19189;SDS011;9727;50.200;19.038;2022-12-18T03:16:35;51.37;;;19.13;;
19189;SDS011;9727;50.200;19.038;2022-12-18T03:19:03;59.07;;;19.97;;
19189;SDS011;9727;50.200;19.038;2022-12-18T03:21:32;54.70;;;20.93;;
19189;SDS011;9727;50.200;19.038;2022-12-18T03:24:01;57.23;;;20.23;;
19189;SDS011;9727;50.200;19.038;2022-12-18T03:26:29;57.20;;;20.87;;
19189;SDS011;9727;50.200;19.038;2022-12-18T03:28:56;51.03;;;19.33;;
19189;SDS011;9727;50.200;19.038;2022-12-18T03:31:27;53.20;;;18.73;;
19189;SDS011;9727;50.200;19.038;2022-12-18T03:33:56;56.43;;;20.70;;
19189;SDS011;9727;50.200;19.038;2022-12-18T03:36:23;55.17;;;18.83;;
19189;SDS011;9727;50.200;19.038;2022-12-18T03:38:50;56.97;;;20.03;;
19189;SDS011;9727;50.200;19.038;2022-12-18T03:41:19;56.60;;;19.90;;
19189;SDS011;9727;50.200;19.038;2022-12-18T03:43:48;55.33;;;20.47;;
19189;SDS011;9727;50.200;19.038;2022-12-18T03:46:20;57.67;;;19.20;;
19189;SDS011;9727;50.200;19.038;2022-12-18T03:48:54;62.20;;;20.13;;
19189;SDS011;9727;50.200;19.038;2022-12-18T03:51:24;50.27;;;19.20;;
19189;SDS011;9727;50.200;19.038;2022-12-18T03:53:53;57.23;;;20.43;;
19189;SDS011;9727;50.200;19.038;2022-12-18T03:56:21;60.10;;;19.67;;
19189;SDS011;9727;50.200;19.038;2022-12-18T03:58:50;55.30;;;19.93;;
19189;SDS011;9727;50.200;19.038;2022-12-18T04:01:18;63.33;;;20.00;;
19189;SDS011;9727;50.200;19.038;2022-12-18T04:03:46;54.07;;;19.30;;
19189;SDS011;9727;50.200;19.038;2022-12-18T04:06:18;52.67;;;19.33;;
19189;SDS011;9727;50.200;19.038;2022-12-18T04:08:45;58.30;;;20.67;;
19189;SDS011;9727;50.200;19.038;2022-12-18T04:11:12;55.27;;;19.10;;
19189;SDS011;9727;50.200;19.038;2022-12-18T04:13:38;59.43;;;20.67;;
19189;SDS011;9727;50.200;19.038;2022-12-18T04:16:05;58.93;;;20.73;;
19189;SDS011;9727;50.200;19.038;2022-12-18T04:18:35;56.60;;;20.00;;
19189;SDS011;9727;50.200;19.038;2022-12-18T04:21:02;58.03;;;19.70;;
19189;SDS011;9727;50.200;19.038;2022-12-18T04:23:30;52.63;;;19.37;;
19189;SDS011;9727;50.200;19.038;2022-12-18T04:25:58;56.07;;;20.53;;
19189;SDS011;9727;50.200;19.038;2022-12-18T04:28:25;65.87;;;21.20;;
19189;SDS011;9727;50.200;19.038;2022-12-18T04:30:51;63.20;;;20.60;;
19189;SDS011;9727;50.200;19.038;2022-12-18T04:33:18;61.83;;;21.10;;
19189;SDS011;9727;50.200;19.038;2022-12-18T04:35:45;56.50;;;20.90;;
19189;SDS011;9727;50.200;19.038;2022-12-18T04:38:12;58.97;;;20.47;;
19189;SDS011;9727;50.200;19.038;2022-12-18T04:40:40;66.40;;;21.60;;
19189;SDS011;9727;50.200;19.038;2022-12-18T04:43:07;54.97;;;19.97;;
19189;SDS011;9727;50.200;19.038;2022-12-18T04:45:34;59.07;;;20.77;;
19189;SDS011;9727;50.200;19.038;2022-12-18T04:48:01;59.87;;;20.73;;
19189;SDS011;9727;50.200;19.038;2022-12-18T04:50:28;61.77;;;21.20;;
19189;SDS011;9727;50.200;19.038;2022-12-18T04:52:55;63.60;;;21.57;;
19189;SDS011;9727;50.200;19.038;2022-12-18T04:55:22;58.43;;;20.43;;
19189;SDS011;9727;50.200;19.038;2022-12-18T04:57:50;57.63;;;20.70;;
19189;SDS011;9727;50.200;19.038;2022-12-18T05:00:20;62.20;;;21.10;;
19189;SDS011;9727;50.200;19.038;2022-12-18T05:02:47;68.13;;;21.67;;
19189;SDS011;9727;50.200;19.038;2022-12-18T05:05:15;61.80;;;22.87;;
19189;SDS011;9727;50.200;19.038;2022-12-18T05:07:42;66.27;;;22.03;;
19189;SDS011;9727;50.200;19.038;2022-12-18T05:10:08;63.80;;;22.03;;
19189;SDS011;9727;50.200;19.038;2022-12-18T05:12:35;68.90;;;22.30;;
19189;SDS011;9727;50.200;19.038;2022-12-18T05:15:23;60.57;;;22.00;;
19189;SDS011;9727;50.200;19.038;2022-12-18T05:17:50;65.07;;;22.43;;
19189;SDS011;9727;50.200;19.038;2022-12-18T05:20:16;62.37;;;22.30;;
19189;SDS011;9727;50.200;19.038;2022-12-18T05:22:43;69.33;;;23.43;;
19189;SDS011;9727;50.200;19.038;2022-12-18T05:25:09;64.70;;;22.77;;
19189;SDS011;9727;50.200;19.038;2022-12-18T05:27:36;64.97;;;21.87;;
19189;SDS011;9727;50.200;19.038;2022-12-18T05:30:03;61.20;;;22.03;;
19189;SDS011;9727;50.200;19.038;2022-12-18T05:32:31;62.33;;;22.70;;
19189;SDS011;9727;50.200;19.038;2022-12-18T05:35:00;70.90;;;24.07;;
19189;SDS011;9727;50.200;19.038;2022-12-18T05:37:27;64.10;;;22.33;;
19189;SDS011;9727;50.200;19.038;2022-12-18T05:39:54;69.67;;;23.50;;
19189;SDS011;9727;50.200;19.038;2022-12-18T05:42:20;73.77;;;24.27;;
19189;SDS011;9727;50.200;19.038;2022-12-18T05:44:47;69.13;;;23.90;;
19189;SDS011;9727;50.200;19.038;2022-12-18T05:47:18;69.30;;;24.30;;
19189;SDS011;9727;50.200;19.038;2022-12-18T05:49:46;70.50;;;23.27;;
19189;SDS011;9727;50.200;19.038;2022-12-18T05:52:12;64.53;;;22.63;;
19189;SDS011;9727;50.200;19.038;2022-12-18T05:54:39;64.27;;;22.83;;
19189;SDS011;9727;50.200;19.038;2022-12-18T05:57:06;63.57;;;23.27;;
19189;SDS011;9727;50.200;19.038;2022-12-18T05:59:35;73.90;;;24.37;;
19189;SDS011;9727;50.200;19.038;2022-12-18T06:02:08;69.87;;;23.90;;
19189;SDS011;9727;50.200;19.038;2022-12-18T06:04:34;66.67;;;22.50;;
19189;SDS011;9727;50.200;19.038;2022-12-18T06:07:02;72.63;;;24.37;;
19189;SDS011;9727;50.200;19.038;2022-12-18T06:09:31;70.50;;;23.17;;
19189;SDS011;9727;50.200;19.038;2022-12-18T06:12:00;58.53;;;21.83;;
19189;SDS011;9727;50.200;19.038;2022-12-18T06:14:27;68.13;;;23.97;;
19189;SDS011;9727;50.200;19.038;2022-12-18T06:16:53;72.80;;;24.73;;
19189;SDS011;9727;50.200;19.038;2022-12-18T06:19:20;73.40;;;24.47;;
19189;SDS011;9727;50.200;19.038;2022-12-18T06:21:47;76.53;;;24.97;;
19189;SDS011;9727;50.200;19.038;2022-12-18T06:24:28;70.27;;;23.63;;
19189;SDS011;9727;50.200;19.038;2022-12-18T06:26:55;85.20;;;25.53;;
19189;SDS011;9727;50.200;19.038;2022-12-18T06:29:22;74.10;;;24.87;;
19189;SDS011;9727;50.200;19.038;2022-12-18T06:31:52;77.33;;;24.67;;
19189;SDS011;9727;50.200;19.038;2022-12-18T06:34:24;78.83;;;26.03;;
19189;SDS011;9727;50.200;19.038;2022-12-18T06:36:51;79.13;;;26.50;;
19189;SDS011;9727;50.200;19.038;2022-12-18T06:39:20;76.40;;;25.40;;
19189;SDS011;9727;50.200;19.038;2022-12-18T06:41:50;78.80;;;25.60;;
19189;SDS011;9727;50.200;19.038;2022-12-18T06:44:20;81.47;;;25.97;;
19189;SDS011;9727;50.200;19.038;2022-12-18T06:46:50;73.00;;;24.73;;
19189;SDS011;9727;50.200;19.038;2022-12-18T06:49:16;83.67;;;26.30;;
19189;SDS011;9727;50.200;19.038;2022-12-18T06:51:44;77.47;;;25.40;;
19189;SDS011;9727;50.200;19.038;2022-12-18T06:54:13;76.27;;;24.83;;
19189;SDS011;9727;50.200;19.038;2022-12-18T06:56:44;67.97;;;24.80;;
19189;SDS011;9727;50.200;19.038;2022-12-18T06:59:13;69.90;;;23.47;;
19189;SDS011;9727;50.200;19.038;2022-12-18T07:01:40;72.67;;;25.53;;
19189;SDS011;9727;50.200;19.038;2022-12-18T07:04:07;72.60;;;22.67;;
19189;SDS011;9727;50.200;19.038;2022-12-18T07:06:33;77.87;;;24.63;;
19189;SDS011;9727;50.200;19.038;2022-12-18T07:09:00;72.90;;;24.73;;
19189;SDS011;9727;50.200;19.038;2022-12-18T07:11:27;70.53;;;24.73;;
19189;SDS011;9727;50.200;19.038;2022-12-18T07:13:54;68.30;;;25.60;;
19189;SDS011;9727;50.200;19.038;2022-12-18T07:16:22;78.20;;;25.73;;
19189;SDS011;9727;50.200;19.038;2022-12-18T07:18:50;79.00;;;25.50;;
19189;SDS011;9727;50.200;19.038;2022-12-18T07:21:20;71.70;;;25.47;;
19189;SDS011;9727;50.200;19.038;2022-12-18T07:23:47;76.07;;;23.77;;
19189;SDS011;9727;50.200;19.038;2022-12-18T07:26:16;76.67;;;25.83;;
19189;SDS011;9727;50.200;19.038;2022-12-18T07:28:43;69.33;;;23.70;;
19189;SDS011;9727;50.200;19.038;2022-12-18T07:31:10;78.27;;;25.10;;
19189;SDS011;9727;50.200;19.038;2022-12-18T07:33:39;73.97;;;25.33;;
19189;SDS011;9727;50.200;19.038;2022-12-18T07:36:06;76.70;;;24.70;;
19189;SDS011;9727;50.200;19.038;2022-12-18T07:38:36;72.93;;;25.63;;
19189;SDS011;9727;50.200;19.038;2022-12-18T07:41:03;71.33;;;25.80;;
19189;SDS011;9727;50.200;19.038;2022-12-18T07:43:34;70.60;;;25.47;;
19189;SDS011;9727;50.200;19.038;2022-12-18T07:46:00;78.00;;;27.07;;
19189;SDS011;9727;50.200;19.038;2022-12-18T07:48:27;81.17;;;27.80;;
19189;SDS011;9727;50.200;19.038;2022-12-18T07:50:59;76.30;;;27.00;;
19189;SDS011;9727;50.200;19.038;2022-12-18T07:53:25;78.03;;;25.87;;
19189;SDS011;9727;50.200;19.038;2022-12-18T07:55:55;80.60;;;26.57;;
19189;SDS011;9727;50.200;19.038;2022-12-18T07:58:23;85.73;;;29.40;;
19189;SDS011;9727;50.200;19.038;2022-12-18T08:00:49;87.07;;;27.60;;
19189;SDS011;9727;50.200;19.038;2022-12-18T08:03:20;78.93;;;27.50;;
19189;SDS011;9727;50.200;19.038;2022-12-18T08:05:46;76.47;;;26.20;;
19189;SDS011;9727;50.200;19.038;2022-12-18T08:08:14;78.23;;;27.37;;
19189;SDS011;9727;50.200;19.038;2022-12-18T08:10:41;81.53;;;27.57;;
19189;SDS011;9727;50.200;19.038;2022-12-18T08:13:07;79.60;;;26.93;;
19189;SDS011;9727;50.200;19.038;2022-12-18T08:15:34;82.00;;;31.27;;
19189;SDS011;9727;50.200;19.038;2022-12-18T08:18:01;86.40;;;29.43;;
19189;SDS011;9727;50.200;19.038;2022-12-18T08:20:28;81.20;;;28.63;;
19189;SDS011;9727;50.200;19.038;2022-12-18T08:22:54;83.37;;;28.17;;
19189;SDS011;9727;50.200;19.038;2022-12-18T08:25:24;77.63;;;26.30;;
19189;SDS011;9727;50.200;19.038;2022-12-18T08:27:51;79.70;;;27.40;;
19189;SDS011;9727;50.200;19.038;2022-12-18T08:30:18;82.10;;;28.50;;
19189;SDS011;9727;50.200;19.038;2022-12-18T08:32:44;80.40;;;28.47;;
19189;SDS011;9727;50.200;19.038;2022-12-18T08:35:11;74.80;;;27.30;;
19189;SDS011;9727;50.200;19.038;2022-12-18T08:37:38;82.57;;;28.07;;
19189;SDS011;9727;50.200;19.038;2022-12-18T08:40:05;82.50;;;27.30;;
19189;SDS011;9727;50.200;19.038;2022-12-18T08:42:33;79.70;;;27.47;;
19189;SDS011;9727;50.200;19.038;2022-12-18T08:45:20;82.27;;;27.27;;
19189;SDS011;9727;50.200;19.038;2022-12-18T08:47:49;88.77;;;29.00;;
19189;SDS011;9727;50.200;19.038;2022-12-18T08:50:24;81.17;;;27.80;;
19189;SDS011;9727;50.200;19.038;2022-12-18T08:52:51;81.30;;;27.50;;
19189;SDS011;9727;50.200;19.038;2022-12-18T08:55:18;88.57;;;29.03;;
19189;SDS011;9727;50.200;19.038;2022-12-18T08:57:49;84.93;;;29.43;;
19189;SDS011;9727;50.200;19.038;2022-12-18T09:00:16;76.73;;;26.63;;
19189;SDS011;9727;50.200;19.038;2022-12-18T09:02:45;82.03;;;28.00;;
19189;SDS011;9727;50.200;19.038;2022-12-18T09:05:12;76.43;;;27.83;;
19189;SDS011;9727;50.200;19.038;2022-12-18T09:07:38;85.93;;;28.97;;
19189;SDS011;9727;50.200;19.038;2022-12-18T09:10:09;76.77;;;26.63;;
19189;SDS011;9727;50.200;19.038;2022-12-18T09:12:35;84.63;;;27.47;;
19189;SDS011;9727;50.200;19.038;2022-12-18T09:15:08;78.07;;;28.10;;
19189;SDS011;9727;50.200;19.038;2022-12-18T09:17:35;79.23;;;27.20;;
19189;SDS011;9727;50.200;19.038;2022-12-18T09:20:05;80.77;;;27.60;;
19189;SDS011;9727;50.200;19.038;2022-12-18T09:22:35;86.07;;;28.73;;
19189;SDS011;9727;50.200;19.038;2022-12-18T09:25:02;84.30;;;27.63;;
19189;SDS011;9727;50.200;19.038;2022-12-18T09:27:29;82.57;;;28.47;;
19189;SDS011;9727;50.200;19.038;2022-12-18T09:29:55;86.40;;;29.70;;
19189;SDS011;9727;50.200;19.038;2022-12-18T09:32:23;85.67;;;29.43;;
19189;SDS011;9727;50.200;19.038;2022-12-18T09:34:50;87.27;;;28.37;;
19189;SDS011;9727;50.200;19.038;2022-12-18T09:37:16;73.83;;;28.27;;
19189;SDS011;9727;50.200;19.038;2022-12-18T09:39:43;85.17;;;29.60;;
19189;SDS011;9727;50.200;19.038;2022-12-18T09:42:10;83.63;;;30.80;;
19189;SDS011;9727;50.200;19.038;2022-12-18T09:44:43;80.60;;;29.93;;
19189;SDS011;9727;50.200;19.038;2022-12-18T09:47:13;74.43;;;27.40;;
19189;SDS011;9727;50.200;19.038;2022-12-18T09:49:42;82.90;;;29.23;;
19189;SDS011;9727;50.200;19.038;2022-12-18T09:52:09;83.67;;;29.13;;
19189;SDS011;9727;50.200;19.038;2022-12-18T09:54:38;85.97;;;31.63;;
19189;SDS011;9727;50.200;19.038;2022-12-18T09:57:05;80.50;;;28.50;;
19189;SDS011;9727;50.200;19.038;2022-12-18T09:59:34;73.80;;;27.97;;
19189;SDS011;9727;50.200;19.038;2022-12-18T10:02:10;73.23;;;27.87;;
19189;SDS011;9727;50.200;19.038;2022-12-18T10:04:38;77.07;;;28.63;;
19189;SDS011;9727;50.200;19.038;2022-12-18T10:07:07;83.67;;;29.17;;
19189;SDS011;9727;50.200;19.038;2022-12-18T10:09:37;76.97;;;28.80;;
19189;SDS011;9727;50.200;19.038;2022-12-18T10:12:06;74.30;;;28.40;;
19189;SDS011;9727;50.200;19.038;2022-12-18T10:14:34;78.33;;;26.53;;
19189;SDS011;9727;50.200;19.038;2022-12-18T10:17:05;78.23;;;26.60;;
19189;SDS011;9727;50.200;19.038;2022-12-18T10:19:38;75.23;;;27.50;;
19189;SDS011;9727;50.200;19.038;2022-12-18T10:22:10;71.47;;;26.40;;
19189;SDS011;9727;50.200;19.038;2022-12-18T10:24:40;72.43;;;26.10;;
19189;SDS011;9727;50.200;19.038;2022-12-18T10:27:11;69.70;;;26.43;;
19189;SDS011;9727;50.200;19.038;2022-12-18T10:29:38;71.33;;;26.17;;
19189;SDS011;9727;50.200;19.038;2022-12-18T10:32:06;65.17;;;26.83;;
19189;SDS011;9727;50.200;19.038;2022-12-18T10:34:33;71.00;;;26.60;;
19189;SDS011;9727;50.200;19.038;2022-12-18T10:37:00;46.00;;;20.10;;
19189;SDS011;9727;50.200;19.038;2022-12-18T10:39:28;54.33;;;21.10;;
19189;SDS011;9727;50.200;19.038;2022-12-18T10:41:59;54.93;;;19.17;;
19189;SDS011;9727;50.200;19.038;2022-12-18T10:44:35;56.63;;;20.77;;
19189;SDS011;9727;50.200;19.038;2022-12-18T10:47:02;55.67;;;22.70;;
19189;SDS011;9727;50.200;19.038;2022-12-18T10:49:31;57.93;;;22.43;;
19189;SDS011;9727;50.200;19.038;2022-12-18T10:52:06;61.17;;;24.60;;
19189;SDS011;9727;50.200;19.038;2022-12-18T10:54:38;60.33;;;23.17;;
19189;SDS011;9727;50.200;19.038;2022-12-18T10:57:15;57.97;;;23.33;;
19189;SDS011;9727;50.200;19.038;2022-12-18T10:59:49;55.97;;;25.27;;
19189;SDS011;9727;50.200;19.038;2022-12-18T11:02:24;58.17;;;21.57;;
19189;SDS011;9727;50.200;19.038;2022-12-18T11:04:52;50.13;;;18.67;;
19189;SDS011;9727;50.200;19.038;2022-12-18T11:07:20;45.70;;;18.67;;
19189;SDS011;9727;50.200;19.038;2022-12-18T11:09:58;48.57;;;18.97;;
19189;SDS011;9727;50.200;19.038;2022-12-18T11:12:28;45.23;;;16.93;;
19189;SDS011;9727;50.200;19.038;2022-12-18T11:14:55;44.90;;;18.00;;
19189;SDS011;9727;50.200;19.038;2022-12-18T11:17:25;48.27;;;18.40;;
19189;SDS011;9727;50.200;19.038;2022-12-18T11:19:54;46.97;;;19.13;;
19189;SDS011;9727;50.200;19.038;2022-12-18T11:22:22;60.33;;;21.27;;
19189;SDS011;9727;50.200;19.038;2022-12-18T11:24:54;51.27;;;19.47;;
19189;SDS011;9727;50.200;19.038;2022-12-18T11:27:21;54.13;;;20.23;;
19189;SDS011;9727;50.200;19.038;2022-12-18T11:29:51;67.00;;;23.93;;
19189;SDS011;9727;50.200;19.038;2022-12-18T11:32:32;64.53;;;25.10;;
19189;SDS011;9727;50.200;19.038;2022-12-18T11:35:09;64.30;;;27.07;;
19189;SDS011;9727;50.200;19.038;2022-12-18T11:37:38;49.57;;;20.97;;
19189;SDS011;9727;50.200;19.038;2022-12-18T11:40:09;51.33;;;20.87;;
19189;SDS011;9727;50.200;19.038;2022-12-18T11:42:38;48.37;;;19.40;;
19189;SDS011;9727;50.200;19.038;2022-12-18T11:45:24;42.63;;;17.40;;
19189;SDS011;9727;50.200;19.038;2022-12-18T11:47:52;47.57;;;19.40;;
19189;SDS011;9727;50.200;19.038;2022-12-18T11:50:23;41.50;;;17.60;;
19189;SDS011;9727;50.200;19.038;2022-12-18T11:52:50;48.30;;;17.63;;
19189;SDS011;9727;50.200;19.038;2022-12-18T11:55:19;44.60;;;18.07;;
19189;SDS011;9727;50.200;19.038;2022-12-18T11:57:52;52.57;;;22.53;;
19189;SDS011;9727;50.200;19.038;2022-12-18T12:00:20;61.60;;;23.93;;
19189;SDS011;9727;50.200;19.038;2022-12-18T12:05:31;55.93;;;21.00;;
19189;SDS011;9727;50.200;19.038;2022-12-18T12:08:01;47.77;;;18.10;;
19189;SDS011;9727;50.200;19.038;2022-12-18T12:10:39;54.17;;;20.80;;
19189;SDS011;9727;50.200;19.038;2022-12-18T12:13:13;53.03;;;17.40;;
19189;SDS011;9727;50.200;19.038;2022-12-18T12:15:42;73.63;;;30.57;;
19189;SDS011;9727;50.200;19.038;2022-12-18T12:18:24;56.60;;;21.17;;
19189;SDS011;9727;50.200;19.038;2022-12-18T12:20:53;49.93;;;20.37;;
19189;SDS011;9727;50.200;19.038;2022-12-18T12:23:26;49.83;;;18.70;;
19189;SDS011;9727;50.200;19.038;2022-12-18T12:26:02;50.60;;;19.07;;
19189;SDS011;9727;50.200;19.038;2022-12-18T12:31:24;59.60;;;21.63;;
19189;SDS011;9727;50.200;19.038;2022-12-18T12:33:56;56.37;;;20.43;;
19189;SDS011;9727;50.200;19.038;2022-12-18T12:36:29;59.00;;;21.03;;
19189;SDS011;9727;50.200;19.038;2022-12-18T12:39:01;54.43;;;21.37;;
19189;SDS011;9727;50.200;19.038;2022-12-18T12:41:34;50.00;;;19.60;;
19189;SDS011;9727;50.200;19.038;2022-12-18T12:44:20;52.10;;;21.47;;
19189;SDS011;9727;50.200;19.038;2022-12-18T12:46:54;53.17;;;21.37;;
19189;SDS011;9727;50.200;19.038;2022-12-18T12:49:23;48.47;;;20.33;;
19189;SDS011;9727;50.200;19.038;2022-12-18T12:51:53;53.57;;;20.73;;
19189;SDS011;9727;50.200;19.038;2022-12-18T12:54:23;60.43;;;21.00;;
19189;SDS011;9727;50.200;19.038;2022-12-18T12:56:54;54.77;;;19.10;;
19189;SDS011;9727;50.200;19.038;2022-12-18T12:59:25;50.43;;;18.87;;
19189;SDS011;9727;50.200;19.038;2022-12-18T13:01:54;54.20;;;20.23;;
19189;SDS011;9727;50.200;19.038;2022-12-18T13:04:27;60.50;;;22.40;;
19189;SDS011;9727;50.200;19.038;2022-12-18T13:06:59;61.13;;;23.93;;
19189;SDS011;9727;50.200;19.038;2022-12-18T13:09:29;61.13;;;24.00;;
19189;SDS011;9727;50.200;19.038;2022-12-18T13:11:57;66.73;;;25.07;;
19189;SDS011;9727;50.200;19.038;2022-12-18T13:14:45;65.33;;;26.07;;
19189;SDS011;9727;50.200;19.038;2022-12-18T13:17:26;79.90;;;29.77;;
19189;SDS011;9727;50.200;19.038;2022-12-18T13:20:03;81.40;;;33.70;;
19189;SDS011;9727;50.200;19.038;2022-12-18T13:22:31;81.30;;;31.40;;
19189;SDS011;9727;50.200;19.038;2022-12-18T13:25:00;72.33;;;27.13;;
19189;SDS011;9727;50.200;19.038;2022-12-18T13:27:53;68.63;;;26.00;;
19189;SDS011;9727;50.200;19.038;2022-12-18T13:36:26;78.93;;;27.83;;
19189;SDS011;9727;50.200;19.038;2022-12-18T13:39:10;67.67;;;27.00;;
19189;SDS011;9727;50.200;19.038;2022-12-18T13:41:37;77.50;;;29.80;;
19189;SDS011;9727;50.200;19.038;2022-12-18T13:44:11;77.23;;;29.27;;
19189;SDS011;9727;50.200;19.038;2022-12-18T13:46:42;75.73;;;30.03;;
19189;SDS011;9727;50.200;19.038;2022-12-18T13:49:16;77.50;;;30.77;;
19189;SDS011;9727;50.200;19.038;2022-12-18T13:51:46;105.80;;;38.97;;
19189;SDS011;9727;50.200;19.038;2022-12-18T13:54:18;114.17;;;41.67;;
19189;SDS011;9727;50.200;19.038;2022-12-18T13:56:46;106.90;;;40.37;;
19189;SDS011;9727;50.200;19.038;2022-12-18T13:59:18;104.67;;;38.30;;
19189;SDS011;9727;50.200;19.038;2022-12-18T14:01:46;85.63;;;32.33;;
19189;SDS011;9727;50.200;19.038;2022-12-18T14:04:17;83.13;;;31.00;;
19189;SDS011;9727;50.200;19.038;2022-12-18T14:06:45;78.17;;;31.43;;
19189;SDS011;9727;50.200;19.038;2022-12-18T14:09:13;79.83;;;31.70;;
19189;SDS011;9727;50.200;19.038;2022-12-18T14:11:40;79.73;;;31.50;;
19189;SDS011;9727;50.200;19.038;2022-12-18T14:14:22;74.20;;;30.07;;
19189;SDS011;9727;50.200;19.038;2022-12-18T14:17:03;81.63;;;30.13;;
19189;SDS011;9727;50.200;19.038;2022-12-18T14:19:34;79.30;;;29.77;;
19189;SDS011;9727;50.200;19.038;2022-12-18T14:22:02;78.77;;;31.00;;
19189;SDS011;9727;50.200;19.038;2022-12-18T14:24:29;88.03;;;32.03;;
19189;SDS011;9727;50.200;19.038;2022-12-18T14:26:56;90.37;;;33.10;;
19189;SDS011;9727;50.200;19.038;2022-12-18T14:29:40;88.27;;;34.47;;
19189;SDS011;9727;50.200;19.038;2022-12-18T14:32:12;100.97;;;35.60;;
19189;SDS011;9727;50.200;19.038;2022-12-18T14:34:42;128.90;;;42.90;;
19189;SDS011;9727;50.200;19.038;2022-12-18T14:37:09;141.87;;;48.90;;
19189;SDS011;9727;50.200;19.038;2022-12-18T14:39:36;149.10;;;49.00;;
19189;SDS011;9727;50.200;19.038;2022-12-18T14:42:03;142.67;;;47.70;;
19189;SDS011;9727;50.200;19.038;2022-12-18T14:44:29;150.50;;;55.27;;
19189;SDS011;9727;50.200;19.038;2022-12-18T14:46:57;137.30;;;52.00;;
19189;SDS011;9727;50.200;19.038;2022-12-18T14:49:24;144.30;;;52.57;;